Time;durP1;ratioP1;P1;durP2;ratioP2;P2;SDS_P1;SDS_P2;PMS_P1;PMS_P2;Temp;Humidity;BMP_temperature;BMP_pressure;BME280_temperature;BME280_humidity;BME280_pressure;Samples;Min_cycle;Max_cycle;Signal;HPM_P1;HPM_P2
2022/04/27 00:00:20;;;;;;;3.15;2.85;;;;;;;;;;4931268;29;20607;-77
2022/04/27 00:02:47;;;;;;;3.35;3.05;;;;;;;;;;4924360;29;20223;-68
2022/04/27 00:05:14;;;;;;;3.65;3.38;;;;;;;;;;4941680;29;20209;-72
2022/04/27 00:07:41;;;;;;;6.93;2.85;;;;;;;;;;4930655;29;20206;-71
2022/04/27 00:10:09;;;;;;;3.80;3.50;;;;;;;;;;4928543;29;20199;-74
2022/04/27 00:12:38;;;;;;;3.30;2.67;;;;;;;;;;4928088;29;20226;-74
2022/04/27 00:15:05;;;;;;;5.30;2.78;;;;;;;;;;4924541;29;20589;-74
2022/04/27 00:17:32;;;;;;;3.90;3.58;;;;;;;;;;4927493;29;20199;-73
2022/04/27 00:19:59;;;;;;;3.15;2.50;;;;;;;;;;4927878;29;20191;-72
2022/04/27 00:22:26;;;;;;;4.07;3.15;;;;;;;;;;4925726;29;20207;-71
2022/04/27 00:24:54;;;;;;;4.55;2.88;;;;;;;;;;4929335;29;20211;-71
2022/04/27 00:27:21;;;;;;;3.35;3.05;;;;;;;;;;4926379;29;20282;-71
2022/04/27 00:29:49;;;;;;;2.67;2.47;;;;;;;;;;4929310;29;20203;-71
2022/04/27 00:32:16;;;;;;;3.13;2.92;;;;;;;;;;4930224;29;20226;-73
2022/04/27 00:34:43;;;;;;;3.00;2.72;;;;;;;;;;4935923;29;20203;-71
2022/04/27 00:37:10;;;;;;;3.10;2.80;;;;;;;;;;4928073;29;20191;-74
2022/04/27 00:39:37;;;;;;;4.55;3.20;;;;;;;;;;4940516;29;20222;-73
2022/04/27 00:42:13;;;;;;;3.97;2.70;;;;;;;;;;4931087;29;20203;-70
2022/04/27 00:44:43;;;;;;;4.97;2.35;;;;;;;;;;4923819;29;20223;-69
2022/04/27 00:47:12;;;;;;;4.05;3.20;;;;;;;;;;4928243;29;20572;-72
2022/04/27 00:49:41;;;;;;;3.63;3.05;;;;;;;;;;4929769;29;20207;-71
2022/04/27 00:52:12;;;;;;;3.20;2.90;;;;;;;;;;4929423;29;20231;-72
2022/04/27 00:54:39;;;;;;;4.05;2.70;;;;;;;;;;4941216;29;20654;-70
2022/04/27 00:57:06;;;;;;;3.42;3.10;;;;;;;;;;4927648;29;20195;-71
2022/04/27 00:59:33;;;;;;;3.15;2.78;;;;;;;;;;4923835;29;20289;-73
2022/04/27 01:02:00;;;;;;;4.07;2.95;;;;;;;;;;4928724;29;20202;-71
2022/04/27 01:04:31;;;;;;;7.97;3.80;;;;;;;;;;4927017;29;20418;-69
2022/04/27 01:06:58;;;;;;;3.28;2.65;;;;;;;;;;4923854;29;20195;-70
2022/04/27 01:09:25;;;;;;;2.63;2.42;;;;;;;;;;4930043;29;20614;-72
2022/04/27 01:11:53;;;;;;;3.45;3.15;;;;;;;;;;4937382;29;20203;-70
2022/04/27 01:14:20;;;;;;;4.00;3.25;;;;;;;;;;4939265;29;20206;-71
2022/04/27 01:16:51;;;;;;;4.45;3.63;;;;;;;;;;4938452;29;20207;-71
2022/04/27 01:19:18;;;;;;;4.93;4.43;;;;;;;;;;4932879;29;20211;-69
2022/04/27 01:21:49;;;;;;;3.58;3.28;;;;;;;;;;4933409;29;20203;-70
2022/04/27 01:24:19;;;;;;;4.03;3.60;;;;;;;;;;4932777;29;20289;-70
2022/04/27 01:26:47;;;;;;;3.42;3.13;;;;;;;;;;4930936;29;20230;-70
2022/04/27 01:29:16;;;;;;;4.00;3.60;;;;;;;;;;4932020;29;20217;-69
2022/04/27 01:31:43;;;;;;;3.70;3.40;;;;;;;;;;4929393;29;20201;-69
2022/04/27 01:34:10;;;;;;;2.78;2.58;;;;;;;;;;4928075;29;20315;-70
2022/04/27 01:36:37;;;;;;;6.13;4.22;;;;;;;;;;4934746;29;20575;-72
2022/04/27 01:39:06;;;;;;;3.28;2.97;;;;;;;;;;4926934;29;20226;-70
2022/04/27 01:41:33;;;;;;;4.47;3.55;;;;;;;;;;4929592;29;20195;-71
2022/04/27 01:44:00;;;;;;;4.35;3.47;;;;;;;;;;4931863;29;20195;-70
2022/04/27 01:46:28;;;;;;;3.97;3.42;;;;;;;;;;4934491;29;20214;-72
2022/04/27 01:48:55;;;;;;;3.63;3.25;;;;;;;;;;4928372;29;20242;-70
2022/04/27 01:54:14;;;;;;;4.30;3.80;;;;;;;;;;4926649;29;20226;-70
2022/04/27 01:54:16;;;;;;;4.88;3.97;;;;;;;;;;4930241;29;20286;-70
2022/04/27 01:56:43;;;;;;;4.10;3.70;;;;;;;;;;4928699;29;20720;-73
2022/04/27 01:59:10;;;;;;;4.90;3.70;;;;;;;;;;4925735;29;20207;-71
2022/04/27 02:01:37;;;;;;;4.28;3.22;;;;;;;;;;4932958;29;20210;-73
2022/04/27 02:04:04;;;;;;;3.33;3.13;;;;;;;;;;4929687;29;20199;-71
2022/04/27 02:06:31;;;;;;;4.05;3.58;;;;;;;;;;4925741;29;20213;-73
2022/04/27 02:08:59;;;;;;;3.58;3.10;;;;;;;;;;4941181;29;20931;-69
2022/04/27 02:11:27;;;;;;;4.22;3.47;;;;;;;;;;4930991;29;20230;-73
2022/04/27 02:13:55;;;;;;;4.18;3.60;;;;;;;;;;4928337;29;20218;-75
2022/04/27 02:16:22;;;;;;;3.42;3.13;;;;;;;;;;4934763;29;20203;-67
2022/04/27 02:18:49;;;;;;;3.20;2.90;;;;;;;;;;4933951;29;20195;-67
2022/04/27 02:21:16;;;;;;;4.53;3.60;;;;;;;;;;4932264;29;20253;-69
2022/04/27 02:23:44;;;;;;;3.92;3.63;;;;;;;;;;4934110;29;20562;-68
2022/04/27 02:26:11;;;;;;;4.05;3.35;;;;;;;;;;4933229;29;20236;-68
2022/04/27 02:28:40;;;;;;;4.82;3.78;;;;;;;;;;4930129;29;20559;-70
2022/04/27 02:31:07;;;;;;;3.17;2.97;;;;;;;;;;4933109;29;20203;-71
2022/04/27 02:33:34;;;;;;;3.75;3.45;;;;;;;;;;4933729;29;20227;-72
2022/04/27 02:36:02;;;;;;;4.25;3.85;;;;;;;;;;4945408;29;20191;-68
2022/04/27 02:38:29;;;;;;;3.33;3.03;;;;;;;;;;4934801;29;20301;-67
2022/04/27 02:40:56;;;;;;;3.78;3.08;;;;;;;;;;4929340;29;20871;-68
2022/04/27 02:43:23;;;;;;;3.95;3.63;;;;;;;;;;4930461;29;20231;-68
2022/04/27 02:45:52;;;;;;;6.32;3.13;;;;;;;;;;4932725;29;20213;-71
2022/04/27 02:48:19;;;;;;;4.78;3.45;;;;;;;;;;4933693;29;20242;-68
2022/04/27 02:53:30;;;;;;;4.18;3.30;;;;;;;;;;4927628;29;20234;-69
2022/04/27 02:55:57;;;;;;;3.72;3.42;;;;;;;;;;4934856;29;20666;-68
2022/04/27 02:58:24;;;;;;;4.78;3.65;;;;;;;;;;4929052;29;20203;-72
2022/04/27 03:00:53;;;;;;;3.90;3.50;;;;;;;;;;4921629;29;20202;-69
2022/04/27 03:03:20;;;;;;;5.15;3.80;;;;;;;;;;4928485;29;20225;-68
2022/04/27 03:05:47;;;;;;;3.85;3.53;;;;;;;;;;4918387;29;20829;-69
2022/04/27 03:08:15;;;;;;;5.22;3.50;;;;;;;;;;4924290;29;20192;-69
2022/04/27 03:10:42;;;;;;;4.00;2.85;;;;;;;;;;4930324;29;20203;-68
2022/04/27 03:13:09;;;;;;;5.85;3.30;;;;;;;;;;4930536;29;20223;-72
2022/04/27 03:15:36;;;;;;;4.70;3.35;;;;;;;;;;4929773;29;20218;-69
2022/04/27 03:18:20;;;;;;;3.85;3.40;;;;;;;;;;4936087;29;20207;-69
2022/04/27 03:20:48;;;;;;;6.05;3.60;;;;;;;;;;4933283;29;20211;-68
2022/04/27 03:23:16;;;;;;;4.75;3.20;;;;;;;;;;4923521;29;22306;-71
2022/04/27 03:25:43;;;;;;;4.22;3.55;;;;;;;;;;4926541;29;20198;-71
2022/04/27 03:28:10;;;;;;;3.45;2.92;;;;;;;;;;4933043;29;20206;-71
2022/04/27 03:30:37;;;;;;;3.60;3.17;;;;;;;;;;4923540;29;20644;-74
2022/04/27 03:33:06;;;;;;;3.40;3.10;;;;;;;;;;4923991;29;20211;-68
2022/04/27 03:35:33;;;;;;;3.90;3.50;;;;;;;;;;4935777;29;20210;-68
2022/04/27 03:38:01;;;;;;;4.55;4.13;;;;;;;;;;4930056;29;20685;-68
2022/04/27 03:40:28;;;;;;;3.90;3.35;;;;;;;;;;4936498;29;20313;-70
2022/04/27 03:42:56;;;;;;;6.40;3.80;;;;;;;;;;4937647;29;20714;-69
2022/04/27 03:45:23;;;;;;;3.65;2.97;;;;;;;;;;4934843;29;20206;-69
2022/04/27 03:47:50;;;;;;;3.53;3.22;;;;;;;;;;4925922;29;20286;-68
2022/04/27 03:50:19;;;;;;;3.75;3.45;;;;;;;;;;4934644;29;20273;-69
2022/04/27 03:52:46;;;;;;;3.75;3.45;;;;;;;;;;4911395;29;20666;-70
2022/04/27 03:55:13;;;;;;;3.45;3.15;;;;;;;;;;4926783;29;20199;-68
2022/04/27 03:57:40;;;;;;;4.13;3.70;;;;;;;;;;4936046;29;20202;-69
2022/04/27 04:00:09;;;;;;;3.95;3.65;;;;;;;;;;4924665;29;20209;-72
2022/04/27 04:02:37;;;;;;;4.25;3.95;;;;;;;;;;4937115;29;20202;-71
2022/04/27 04:05:05;;;;;;;5.00;3.55;;;;;;;;;;4943652;29;20661;-69
2022/04/27 04:07:33;;;;;;;4.63;3.63;;;;;;;;;;4930485;29;20195;-75
2022/04/27 04:10:00;;;;;;;5.38;3.97;;;;;;;;;;4925545;29;20199;-71
2022/04/27 04:12:28;;;;;;;4.78;4.05;;;;;;;;;;4929221;29;20202;-69
2022/04/27 04:14:55;;;;;;;6.53;4.18;;;;;;;;;;4929121;29;20230;-75
2022/04/27 04:17:22;;;;;;;3.50;3.22;;;;;;;;;;4934228;29;20218;-72
2022/04/27 04:19:49;;;;;;;5.30;4.45;;;;;;;;;;4932662;29;20581;-70
2022/04/27 04:22:16;;;;;;;4.88;4.03;;;;;;;;;;4930860;29;20200;-68
2022/04/27 04:28:29;;;;;;;5.72;4.20;;;;;;;;;;4922729;29;20230;-70
2022/04/27 04:30:17;;;;;;;4.60;4.20;;;;;;;;;;4925943;29;20206;-71
2022/04/27 04:32:44;;;;;;;5.40;4.88;;;;;;;;;;4919769;29;20544;-69
2022/04/27 04:35:11;;;;;;;3.95;3.65;;;;;;;;;;4921197;29;20222;-71
2022/04/27 04:37:38;;;;;;;4.15;3.75;;;;;;;;;;4932724;29;20198;-69
2022/04/27 04:40:07;;;;;;;5.53;4.63;;;;;;;;;;4930434;28;20226;-69
2022/04/27 04:42:35;;;;;;;4.03;3.63;;;;;;;;;;4943408;29;20205;-69
2022/04/27 04:45:02;;;;;;;4.22;3.83;;;;;;;;;;4939682;29;20222;-69
2022/04/27 04:47:29;;;;;;;6.80;4.50;;;;;;;;;;4935872;29;20204;-69
2022/04/27 04:49:56;;;;;;;4.20;3.80;;;;;;;;;;4939297;29;20199;-69
2022/04/27 04:52:23;;;;;;;5.20;4.20;;;;;;;;;;4926890;29;20681;-71
2022/04/27 04:54:50;;;;;;;4.05;3.53;;;;;;;;;;4928199;29;20222;-69
2022/04/27 04:57:19;;;;;;;5.85;4.60;;;;;;;;;;4930428;29;20195;-70
2022/04/27 04:59:46;;;;;;;4.97;4.07;;;;;;;;;;4934397;29;20297;-69
2022/04/27 05:02:13;;;;;;;5.15;4.65;;;;;;;;;;4933695;29;20202;-68
2022/04/27 05:04:40;;;;;;;6.80;4.78;;;;;;;;;;4938163;29;20585;-69
2022/04/27 05:07:07;;;;;;;5.03;4.13;;;;;;;;;;4935565;29;20195;-70
2022/04/27 05:09:34;;;;;;;5.15;4.10;;;;;;;;;;4928669;29;20203;-69
2022/04/27 05:12:01;;;;;;;5.82;4.18;;;;;;;;;;4940633;29;20205;-72
2022/04/27 05:14:30;;;;;;;7.18;4.30;;;;;;;;;;4926922;29;20225;-69
2022/04/27 05:16:57;;;;;;;7.95;5.03;;;;;;;;;;4940723;29;20207;-69
2022/04/27 05:19:24;;;;;;;4.88;4.47;;;;;;;;;;4940248;29;20203;-75
2022/04/27 05:21:51;;;;;;;5.10;4.70;;;;;;;;;;4930029;29;20202;-69
2022/04/27 05:24:18;;;;;;;4.50;4.10;;;;;;;;;;4924160;29;20570;-69
2022/04/27 05:26:45;;;;;;;4.85;4.45;;;;;;;;;;4943529;29;20210;-69
2022/04/27 05:31:59;;;;;;;4.90;4.40;;;;;;;;;;4928332;29;20229;-69
2022/04/27 05:34:26;;;;;;;5.57;4.63;;;;;;;;;;4938477;29;20222;-70
2022/04/27 05:36:54;;;;;;;5.13;4.70;;;;;;;;;;4939978;29;20277;-72
2022/04/27 05:39:21;;;;;;;9.15;5.53;;;;;;;;;;4930741;29;20223;-70
2022/04/27 05:41:49;;;;;;;5.53;4.82;;;;;;;;;;4916777;29;20203;-73
2022/04/27 05:44:17;;;;;;;7.75;5.18;;;;;;;;;;4933690;29;20203;-71
2022/04/27 05:46:44;;;;;;;5.72;4.45;;;;;;;;;;4938071;29;20681;-70
2022/04/27 05:49:12;;;;;;;4.18;3.75;;;;;;;;;;4938684;29;20195;-70
2022/04/27 05:51:39;;;;;;;4.72;4.32;;;;;;;;;;4932976;29;20237;-69
2022/04/27 05:54:06;;;;;;;6.28;4.53;;;;;;;;;;4929462;29;20222;-73
2022/04/27 05:56:33;;;;;;;7.40;5.35;;;;;;;;;;4935321;29;20202;-69
2022/04/27 05:59:01;;;;;;;4.95;4.38;;;;;;;;;;4940642;29;20199;-75
2022/04/27 06:01:28;;;;;;;4.90;3.70;;;;;;;;;;4938623;29;20295;-73
2022/04/27 06:03:56;;;;;;;5.60;4.20;;;;;;;;;;4932604;29;20203;-69
2022/04/27 06:06:24;;;;;;;5.85;4.22;;;;;;;;;;4942595;29;21212;-73
2022/04/27 06:08:52;;;;;;;6.50;4.13;;;;;;;;;;4925379;29;20222;-68
2022/04/27 06:11:19;;;;;;;5.82;4.07;;;;;;;;;;4934355;29;20195;-79
2022/04/27 06:13:46;;;;;;;3.80;3.47;;;;;;;;;;4941404;29;20249;-70
2022/04/27 06:16:14;;;;;;;7.50;3.78;;;;;;;;;;4935511;29;20599;-70
2022/04/27 06:18:41;;;;;;;3.97;3.58;;;;;;;;;;4940270;29;20194;-77
2022/04/27 06:21:08;;;;;;;5.30;4.05;;;;;;;;;;4929802;29;20204;-70
2022/04/27 06:23:37;;;;;;;3.00;2.70;;;;;;;;;;4930519;29;20202;-71
2022/04/27 06:26:05;;;;;;;4.57;3.78;;;;;;;;;;4935974;29;20199;-70
2022/04/27 06:28:32;;;;;;;4.55;3.50;;;;;;;;;;4930409;29;20314;-71
2022/04/27 06:30:59;;;;;;;3.90;3.53;;;;;;;;;;4929687;29;20211;-71
2022/04/27 06:33:26;;;;;;;9.45;3.60;;;;;;;;;;4928782;29;20221;-70
2022/04/27 06:35:54;;;;;;;8.00;4.30;;;;;;;;;;4926860;29;20223;-72
2022/04/27 06:38:21;;;;;;;4.30;3.90;;;;;;;;;;4926410;29;20214;-72
2022/04/27 06:40:49;;;;;;;3.75;2.97;;;;;;;;;;4933317;29;20227;-71
2022/04/27 06:43:16;;;;;;;3.40;3.03;;;;;;;;;;4931372;29;20192;-71
2022/04/27 06:45:43;;;;;;;3.45;2.78;;;;;;;;;;4936080;29;20205;-73
2022/04/27 06:48:11;;;;;;;4.65;3.25;;;;;;;;;;4933446;29;20199;-70
2022/04/27 06:50:38;;;;;;;2.80;2.30;;;;;;;;;;4920191;29;20287;-70
2022/04/27 06:53:06;;;;;;;3.80;3.50;;;;;;;;;;4931372;29;20199;-72
2022/04/27 06:55:33;;;;;;;5.72;3.42;;;;;;;;;;4937454;29;20223;-70
2022/04/27 06:58:01;;;;;;;4.50;3.20;;;;;;;;;;4924193;29;21371;-75
2022/04/27 07:00:28;;;;;;;3.58;3.28;;;;;;;;;;4922579;29;20198;-70
2022/04/27 07:02:56;;;;;;;3.90;3.60;;;;;;;;;;4923942;29;20202;-72
2022/04/27 07:05:25;;;;;;;2.90;2.65;;;;;;;;;;4930473;29;20214;-70
2022/04/27 07:07:52;;;;;;;3.05;2.75;;;;;;;;;;4932821;29;20221;-70
2022/04/27 07:10:19;;;;;;;4.40;3.20;;;;;;;;;;4936677;29;20198;-73
2022/04/27 07:12:47;;;;;;;3.55;2.90;;;;;;;;;;4932719;29;20670;-72
2022/04/27 07:15:15;;;;;;;4.00;3.00;;;;;;;;;;4935557;29;20229;-71
2022/04/27 07:17:42;;;;;;;4.43;3.33;;;;;;;;;;4934704;29;20202;-71
2022/04/27 07:20:10;;;;;;;3.35;2.60;;;;;;;;;;4935860;29;20217;-69
2022/04/27 07:22:37;;;;;;;3.03;2.72;;;;;;;;;;4936196;29;20298;-78
2022/04/27 07:25:04;;;;;;;3.50;2.85;;;;;;;;;;4935099;29;20212;-72
2022/04/27 07:27:31;;;;;;;3.47;2.95;;;;;;;;;;4937476;29;20230;-68
2022/04/27 07:29:59;;;;;;;2.97;2.67;;;;;;;;;;4934672;29;20269;-71
2022/04/27 07:32:27;;;;;;;3.03;2.60;;;;;;;;;;4937511;29;20641;-71
2022/04/27 07:34:54;;;;;;;5.72;3.00;;;;;;;;;;4935238;29;20225;-70
2022/04/27 07:37:22;;;;;;;5.00;2.92;;;;;;;;;;4931685;29;20578;-70
2022/04/27 07:39:49;;;;;;;3.17;2.47;;;;;;;;;;4932919;29;20233;-77
2022/04/27 07:42:16;;;;;;;5.20;2.67;;;;;;;;;;4935276;29;20577;-75
2022/04/27 07:44:43;;;;;;;3.15;2.85;;;;;;;;;;4934875;29;20238;-68
2022/04/27 07:47:13;;;;;;;5.13;2.60;;;;;;;;;;4925559;29;20246;-69
2022/04/27 07:49:41;;;;;;;3.78;2.97;;;;;;;;;;4934019;29;20229;-70
2022/04/27 07:52:08;;;;;;;6.65;2.97;;;;;;;;;;4933854;29;20199;-76
2022/04/27 07:54:35;;;;;;;3.35;3.05;;;;;;;;;;4928030;29;20226;-68
2022/04/27 07:57:03;;;;;;;3.17;2.75;;;;;;;;;;4931669;29;20701;-69
2022/04/27 07:59:30;;;;;;;4.53;2.60;;;;;;;;;;4934085;29;20229;-69
2022/04/27 08:01:57;;;;;;;2.85;2.65;;;;;;;;;;4934817;29;20203;-77
2022/04/27 08:04:24;;;;;;;8.00;3.25;;;;;;;;;;4934325;29;20198;-71
2022/04/27 08:06:53;;;;;;;3.03;2.55;;;;;;;;;;4936800;29;20202;-70
2022/04/27 08:09:20;;;;;;;3.50;2.50;;;;;;;;;;4931498;29;20199;-73
2022/04/27 08:11:47;;;;;;;5.57;2.25;;;;;;;;;;4931858;29;20201;-70
2022/04/27 08:14:14;;;;;;;2.88;2.65;;;;;;;;;;4933006;29;20547;-69
2022/04/27 08:16:41;;;;;;;3.25;2.95;;;;;;;;;;4937576;29;20261;-74
2022/04/27 08:19:08;;;;;;;3.08;2.47;;;;;;;;;;4937327;29;20276;-73
2022/04/27 08:21:35;;;;;;;4.90;2.00;;;;;;;;;;4936414;29;20280;-69
2022/04/27 08:24:08;;;;;;;2.85;2.50;;;;;;;;;;4936383;29;20657;-68
2022/04/27 08:26:35;;;;;;;4.75;2.25;;;;;;;;;;4938097;29;20311;-71
2022/04/27 08:29:02;;;;;;;2.55;2.25;;;;;;;;;;4936858;29;20445;-68
2022/04/27 08:31:30;;;;;;;5.82;2.70;;;;;;;;;;4926033;29;20673;-68
2022/04/27 08:33:57;;;;;;;5.03;2.28;;;;;;;;;;4934235;29;21429;-68
2022/04/27 08:36:24;;;;;;;5.05;2.15;;;;;;;;;;4934650;29;20225;-68
2022/04/27 08:38:51;;;;;;;3.35;2.40;;;;;;;;;;4930803;29;20369;-68
2022/04/27 08:41:20;;;;;;;2.90;2.50;;;;;;;;;;4936567;29;20285;-72
2022/04/27 08:43:47;;;;;;;3.03;2.60;;;;;;;;;;4934880;29;20205;-76
2022/04/27 08:46:15;;;;;;;4.10;2.60;;;;;;;;;;4931057;29;20286;-78
2022/04/27 08:48:46;;;;;;;2.53;1.88;;;;;;;;;;4937197;29;20211;-74
2022/04/27 08:51:14;;;;;;;2.28;1.90;;;;;;;;;;4938371;29;20249;-72
2022/04/27 08:53:42;;;;;;;4.82;2.70;;;;;;;;;;4929061;29;20639;-73
2022/04/27 08:56:09;;;;;;;3.08;2.47;;;;;;;;;;4943184;29;20227;-75
2022/04/27 08:58:37;;;;;;;2.58;2.20;;;;;;;;;;4933463;29;20210;-75
2022/04/27 09:01:05;;;;;;;2.25;2.05;;;;;;;;;;4933934;29;20203;-74
2022/04/27 09:03:32;;;;;;;3.08;2.15;;;;;;;;;;4933219;29;20199;-75
2022/04/27 09:06:01;;;;;;;2.60;2.10;;;;;;;;;;4936228;29;20207;-74
2022/04/27 09:08:37;;;;;;;2.83;2.40;;;;;;;;;;4930633;29;20205;-73
2022/04/27 09:11:17;;;;;;;3.25;1.88;;;;;;;;;;4926045;29;20206;-75
2022/04/27 09:13:50;;;;;;;5.00;2.17;;;;;;;;;;4926615;29;20282;-74
2022/04/27 09:16:18;;;;;;;2.50;1.92;;;;;;;;;;4942004;29;20222;-74
2022/04/27 09:21:52;;;;;;;3.00;2.00;;;;;;;;;;4935368;29;20774;-74
2022/04/27 09:24:19;;;;;;;4.90;2.47;;;;;;;;;;4922302;29;20212;-74
2022/04/27 09:26:46;;;;;;;2.63;2.17;;;;;;;;;;4917036;29;20204;-74
2022/04/27 09:29:24;;;;;;;2.58;2.35;;;;;;;;;;4936106;29;20202;-74
2022/04/27 09:31:56;;;;;;;2.55;2.00;;;;;;;;;;4928999;29;20206;-75
2022/04/27 09:34:29;;;;;;;3.25;2.30;;;;;;;;;;4933373;29;20199;-74
2022/04/27 09:36:56;;;;;;;2.58;2.00;;;;;;;;;;4928023;29;20202;-74
2022/04/27 09:39:25;;;;;;;2.40;2.20;;;;;;;;;;4928084;29;20409;-74
2022/04/27 09:41:52;;;;;;;3.58;2.05;;;;;;;;;;4938381;29;20242;-74
2022/04/27 09:44:30;;;;;;;2.80;2.60;;;;;;;;;;4930832;29;20301;-74
2022/04/27 09:46:57;;;;;;;2.83;2.50;;;;;;;;;;4930621;29;20563;-74
2022/04/27 09:49:25;;;;;;;2.60;2.13;;;;;;;;;;4936854;29;20262;-74
2022/04/27 09:51:52;;;;;;;3.78;2.58;;;;;;;;;;4930228;29;20195;-75
2022/04/27 09:54:20;;;;;;;3.75;2.63;;;;;;;;;;4931874;29;20199;-74
2022/04/27 09:56:54;;;;;;;2.30;2.10;;;;;;;;;;4929461;29;20736;-74
2022/04/27 09:59:26;;;;;;;4.10;2.17;;;;;;;;;;4933725;29;20202;-74
2022/04/27 10:01:55;;;;;;;3.83;2.10;;;;;;;;;;4937775;29;20273;-74
2022/04/27 10:04:24;;;;;;;2.92;2.30;;;;;;;;;;4937448;29;20202;-74
2022/04/27 10:06:51;;;;;;;3.05;1.75;;;;;;;;;;4936905;29;20191;-74
2022/04/27 10:09:18;;;;;;;2.67;2.00;;;;;;;;;;4933113;29;20626;-74
2022/04/27 10:11:45;;;;;;;2.85;1.95;;;;;;;;;;4926626;29;20197;-74
2022/04/27 10:14:13;;;;;;;6.13;3.33;;;;;;;;;;4940049;29;20203;-74
2022/04/27 10:16:40;;;;;;;2.75;2.00;;;;;;;;;;4942123;29;20221;-74
2022/04/27 10:19:11;;;;;;;2.30;2.10;;;;;;;;;;4936279;29;20672;-74
2022/04/27 10:21:43;;;;;;;2.00;1.85;;;;;;;;;;4939719;29;20198;-76
2022/04/27 10:24:10;;;;;;;3.20;2.50;;;;;;;;;;4925916;29;20625;-71
2022/04/27 10:26:37;;;;;;;2.42;2.22;;;;;;;;;;4921798;29;20211;-72
2022/04/27 10:29:06;;;;;;;3.30;2.97;;;;;;;;;;4930723;29;20203;-74
2022/04/27 10:31:51;;;;;;;3.05;2.40;;;;;;;;;;4932768;29;20253;-72
2022/04/27 10:34:23;;;;;;;2.80;2.60;;;;;;;;;;4918660;29;20667;-71
2022/04/27 10:36:51;;;;;;;2.95;2.65;;;;;;;;;;4922429;29;20231;-70
2022/04/27 10:39:19;;;;;;;6.82;2.95;;;;;;;;;;4931449;28;20594;-72
2022/04/27 10:41:50;;;;;;;2.90;2.58;;;;;;;;;;4935603;29;20191;-72
2022/04/27 10:44:17;;;;;;;3.78;3.00;;;;;;;;;;4929380;29;20199;-72
2022/04/27 10:46:44;;;;;;;2.85;2.65;;;;;;;;;;4930885;29;20211;-71
2022/04/27 10:49:25;;;;;;;4.03;3.35;;;;;;;;;;4929274;29;20198;-72
2022/04/27 10:52:01;;;;;;;5.43;3.92;;;;;;;;;;4929532;29;20199;-72
2022/04/27 10:54:31;;;;;;;3.10;2.70;;;;;;;;;;4931222;29;20293;-72
2022/04/27 10:57:29;;;;;;;3.20;2.70;;;;;;;;;;4924628;29;20682;-72
2022/04/27 10:59:59;;;;;;;4.70;3.30;;;;;;;;;;4926442;29;20207;-71
2022/04/27 11:02:33;;;;;;;3.88;3.58;;;;;;;;;;4929029;29;20633;-72
2022/04/27 11:05:01;;;;;;;5.53;3.00;;;;;;;;;;4928735;29;20254;-71
2022/04/27 11:07:33;;;;;;;3.58;2.85;;;;;;;;;;4927928;29;20209;-78
2022/04/27 11:10:10;;;;;;;3.97;3.55;;;;;;;;;;4931096;29;20207;-73
2022/04/27 11:12:38;;;;;;;3.40;3.10;;;;;;;;;;4932738;29;20203;-73
2022/04/27 11:15:06;;;;;;;3.00;2.80;;;;;;;;;;4931234;29;20203;-72
2022/04/27 11:17:34;;;;;;;4.10;3.55;;;;;;;;;;4928402;29;20213;-71
2022/04/27 11:20:03;;;;;;;3.97;2.92;;;;;;;;;;4929413;29;20573;-71
2022/04/27 11:22:37;;;;;;;5.32;4.75;;;;;;;;;;4924316;29;20203;-71
2022/04/27 11:25:06;;;;;;;4.43;3.25;;;;;;;;;;4929879;29;20195;-71
2022/04/27 11:27:35;;;;;;;3.80;2.95;;;;;;;;;;4930304;29;20203;-76
2022/04/27 11:30:03;;;;;;;3.78;3.45;;;;;;;;;;4929658;29;20233;-73
2022/04/27 11:32:30;;;;;;;3.47;3.17;;;;;;;;;;4926306;29;20254;-70
2022/04/27 11:34:57;;;;;;;5.28;4.20;;;;;;;;;;4926941;29;20210;-72
2022/04/27 11:37:26;;;;;;;7.65;3.90;;;;;;;;;;4934434;29;20317;-71
2022/04/27 11:39:53;;;;;;;4.75;3.67;;;;;;;;;;4928782;29;20717;-73
2022/04/27 11:42:20;;;;;;;3.50;3.20;;;;;;;;;;4924051;29;20215;-71
2022/04/27 11:44:58;;;;;;;3.22;2.92;;;;;;;;;;4922020;29;20207;-74
2022/04/27 11:47:29;;;;;;;3.47;2.92;;;;;;;;;;4929208;29;20218;-72
2022/04/27 11:49:56;;;;;;;3.55;3.25;;;;;;;;;;4927479;29;20226;-72
2022/04/27 11:52:23;;;;;;;4.80;3.85;;;;;;;;;;4926226;29;20207;-74
2022/04/27 11:54:52;;;;;;;4.43;3.47;;;;;;;;;;4941787;29;20198;-72
2022/04/27 11:57:22;;;;;;;3.22;2.92;;;;;;;;;;4922170;29;20240;-74
2022/04/27 11:59:51;;;;;;;5.25;3.55;;;;;;;;;;4926954;29;20205;-71
2022/04/27 12:02:23;;;;;;;5.55;3.83;;;;;;;;;;4928485;29;20817;-73
2022/04/27 12:04:50;;;;;;;3.53;3.03;;;;;;;;;;4928569;29;20207;-70
2022/04/27 12:07:18;;;;;;;4.68;3.17;;;;;;;;;;4928870;29;20219;-73
2022/04/27 12:09:58;;;;;;;4.72;4.30;;;;;;;;;;4928612;29;20246;-71
2022/04/27 12:12:26;;;;;;;3.30;3.00;;;;;;;;;;4932338;29;20203;-72
2022/04/27 12:14:53;;;;;;;3.42;3.13;;;;;;;;;;4924716;29;20678;-74
2022/04/27 12:17:39;;;;;;;5.68;3.40;;;;;;;;;;4928574;29;20597;-80
2022/04/27 12:20:06;;;;;;;3.70;3.40;;;;;;;;;;4929278;29;20195;-73
2022/04/27 12:22:33;;;;;;;4.15;3.75;;;;;;;;;;4922798;29;20208;-73
2022/04/27 12:25:03;;;;;;;4.20;3.15;;;;;;;;;;4929225;29;20218;-73
2022/04/27 12:27:30;;;;;;;4.78;3.58;;;;;;;;;;4929392;29;20221;-71
2022/04/27 12:30:05;;;;;;;7.32;3.65;;;;;;;;;;4924856;29;20207;-73
2022/04/27 12:32:32;;;;;;;3.50;3.20;;;;;;;;;;4933774;29;20201;-70
2022/04/27 12:37:50;;;;;;;3.45;3.10;;;;;;;;;;4924701;29;20229;-71
2022/04/27 12:40:19;;;;;;;4.95;4.53;;;;;;;;;;4918871;29;20698;-70
2022/04/27 12:43:02;;;;;;;3.45;2.70;;;;;;;;;;4930034;29;20266;-70
2022/04/27 12:45:30;;;;;;;5.72;3.55;;;;;;;;;;4923183;29;20202;-70
2022/04/27 12:47:57;;;;;;;3.40;3.10;;;;;;;;;;4924836;29;20322;-70
2022/04/27 12:50:24;;;;;;;8.70;3.90;;;;;;;;;;4924700;29;20230;-70
2022/04/27 12:52:51;;;;;;;4.40;3.92;;;;;;;;;;4924987;29;20214;-70
2022/04/27 12:55:21;;;;;;;3.90;3.50;;;;;;;;;;4938367;29;20202;-71
2022/04/27 12:57:49;;;;;;;4.15;3.45;;;;;;;;;;4938789;29;20317;-70
2022/04/27 13:00:17;;;;;;;5.25;4.43;;;;;;;;;;4923876;29;20544;-70
2022/04/27 13:02:45;;;;;;;4.15;3.65;;;;;;;;;;4935727;29;20216;-70
2022/04/27 13:05:12;;;;;;;5.68;3.78;;;;;;;;;;4932537;29;20228;-71
2022/04/27 13:07:40;;;;;;;4.40;3.50;;;;;;;;;;4931755;29;20196;-70
2022/04/27 13:12:53;;;;;;;4.28;3.47;;;;;;;;;;4932604;29;20210;-73
2022/04/27 13:15:21;;;;;;;5.18;3.42;;;;;;;;;;4927049;28;20293;-71
2022/04/27 13:17:48;;;;;;;3.13;2.92;;;;;;;;;;4928038;29;20235;-70
2022/04/27 13:20:15;;;;;;;3.75;3.35;;;;;;;;;;4937203;29;20214;-71
2022/04/27 13:22:43;;;;;;;3.38;2.88;;;;;;;;;;4943353;29;20194;-70
2022/04/27 13:25:10;;;;;;;3.65;3.35;;;;;;;;;;4938919;29;20198;-71
2022/04/27 13:27:37;;;;;;;3.85;3.47;;;;;;;;;;4941244;29;20201;-71
2022/04/27 13:30:06;;;;;;;2.95;2.53;;;;;;;;;;4934847;29;20190;-70
2022/04/27 13:32:34;;;;;;;4.45;3.50;;;;;;;;;;4932850;29;20202;-69
2022/04/27 13:35:01;;;;;;;5.57;4.20;;;;;;;;;;4931316;29;20665;-72
2022/04/27 13:37:29;;;;;;;4.28;2.88;;;;;;;;;;4932108;29;20231;-71
2022/04/27 13:39:57;;;;;;;7.60;4.07;;;;;;;;;;4931497;29;20397;-71
2022/04/27 13:42:24;;;;;;;4.75;3.40;;;;;;;;;;4930274;29;20210;-72
2022/04/27 13:44:51;;;;;;;4.30;3.38;;;;;;;;;;4933181;29;20198;-71
2022/04/27 13:47:20;;;;;;;6.03;3.58;;;;;;;;;;4936457;29;20228;-72
2022/04/27 13:49:48;;;;;;;3.58;2.97;;;;;;;;;;4928674;29;20235;-70
2022/04/27 13:52:15;;;;;;;17.05;4.60;;;;;;;;;;4928039;29;20659;-71
2022/04/27 13:54:42;;;;;;;7.65;3.42;;;;;;;;;;4932888;29;20254;-72
2022/04/27 13:57:09;;;;;;;4.13;3.50;;;;;;;;;;4932211;29;20231;-70
2022/04/27 13:59:36;;;;;;;4.85;3.35;;;;;;;;;;4930147;29;20203;-72
2022/04/27 14:02:05;;;;;;;5.80;3.58;;;;;;;;;;4932235;29;20222;-70
2022/04/27 14:04:33;;;;;;;8.18;4.30;;;;;;;;;;4941687;29;20623;-71
2022/04/27 14:07:01;;;;;;;8.48;7.22;;;;;;;;;;4930994;29;20215;-73
2022/04/27 14:09:28;;;;;;;14.52;8.13;;;;;;;;;;4933776;29;20669;-71
2022/04/27 14:14:40;;;;;;;9.35;8.27;;;;;;;;;;4928501;29;20227;-71
2022/04/27 14:19:53;;;;;;;7.90;7.05;;;;;;;;;;4925999;29;20215;-70
2022/04/27 14:22:22;;;;;;;7.68;6.97;;;;;;;;;;4931242;29;20210;-70
2022/04/27 14:24:49;;;;;;;13.30;8.13;;;;;;;;;;4937254;29;20203;-70
2022/04/27 14:27:16;;;;;;;9.07;7.95;;;;;;;;;;4941834;29;20230;-72
2022/04/27 14:29:43;;;;;;;17.92;8.55;;;;;;;;;;4934244;29;20214;-71
2022/04/27 14:32:10;;;;;;;8.30;7.40;;;;;;;;;;4926618;29;20536;-71
2022/04/27 14:34:37;;;;;;;12.75;7.65;;;;;;;;;;4929903;29;20218;-71
2022/04/27 14:37:06;;;;;;;7.35;6.65;;;;;;;;;;4946340;29;20226;-71
2022/04/27 14:39:33;;;;;;;10.25;8.00;;;;;;;;;;4953932;23;20217;-79
2022/04/27 14:42:00;;;;;;;12.52;7.60;;;;;;;;;;4972511;28;20255;-79
2022/04/27 14:44:27;;;;;;;8.25;7.20;;;;;;;;;;4974628;28;20656;-81
2022/04/27 14:46:56;;;;;;;9.38;8.18;;;;;;;;;;4978333;28;20204;-81
2022/04/27 14:49:23;;;;;;;7.45;6.68;;;;;;;;;;4976528;28;20208;-84
2022/04/27 14:51:50;;;;;;;8.07;7.28;;;;;;;;;;4958191;28;20199;-80
2022/04/27 14:54:19;;;;;;;11.18;7.97;;;;;;;;;;4968641;28;20206;-81
2022/04/27 14:56:47;;;;;;;30.75;9.18;;;;;;;;;;4960659;28;20735;-82
2022/04/27 14:59:15;;;;;;;14.93;8.45;;;;;;;;;;4968878;28;20296;-81
2022/04/27 15:01:42;;;;;;;43.78;8.95;;;;;;;;;;4978399;28;20219;-82
2022/04/27 15:04:10;;;;;;;9.15;8.18;;;;;;;;;;4979112;28;20203;-80
2022/04/27 15:06:38;;;;;;;10.48;7.63;;;;;;;;;;4972525;28;20199;-86
2022/04/27 15:09:05;;;;;;;9.65;6.53;;;;;;;;;;4956885;28;20208;-87
2022/04/27 15:11:36;;;;;;;11.32;6.05;;;;;;;;;;4970701;28;20214;-86